KETN/ETN METAR and TAF weather

Enter ICAO airport designator
Station Type Date Time Source
KETN METAR 2020/10/29 17:15 UTC NOAA

KETN 291715Z AUTO 33015G22KT 10SM OVC024 09/04 A3020 RMK AO2 T00940037


Station Type Date Time Source
KETN Decoded METAR 2020/10/29 17:15 UTC NOAA

Station name not available
Oct 29, 2020 - 01:15 PM EDT / 2020.10.29 1715 UTC
Wind: from the NNW (330 degrees) at 17 MPH (15 KT) gusting to 25 MPH (22 KT):0
Visibility: 10 mile(s):0
Sky conditions: overcast
Temperature: 48.9 F (9.4 C)
Dew Point: 38.7 F (3.7 C)
Relative Humidity: 67%
Pressure (altimeter): 30.2 in. Hg (1022 hPa)
ob: KETN 291715Z AUTO 33015G22KT 10SM OVC024 09/04 A3020 RMK AO2 T00940037
cycle: 17

Station Type Date Time Source
KETN TAF UTC NOAA

Error!

Example: see airport list